Time;durP1;ratioP1;P1;durP2;ratioP2;P2;SDS_P1;SDS_P2;PMS_P1;PMS_P2;Temp;Humidity;BMP_temperature;BMP_pressure;BME280_temperature;BME280_humidity;BME280_pressure;Samples;Min_cycle;Max_cycle;Signal;HPM_P1;HPM_P2
2022/10/16 00:01:28;;;;;;;1.90;1.70;;;16.40;80.60;;;;;;4804678;29;20051;-52
2022/10/16 00:03:56;;;;;;;3.58;2.10;;;16.50;80.50;;;;;;4804140;29;20073;-48
2022/10/16 00:06:26;;;;;;;4.10;1.42;;;16.50;80.40;;;;;;4803202;29;20062;-50
2022/10/16 00:08:58;;;;;;;4.38;1.85;;;16.40;80.40;;;;;;4802757;29;20043;-50
2022/10/16 00:11:36;;;;;;;2.85;1.70;;;16.50;80.30;;;;;;4804364;29;20058;-47
2022/10/16 00:14:07;;;;;;;2.50;1.48;;;16.40;80.20;;;;;;4804564;29;20065;-48
2022/10/16 00:16:34;;;;;;;2.58;1.75;;;16.40;80.30;;;;;;4800892;29;20127;-48
2022/10/16 00:19:02;;;;;;;7.82;1.90;;;16.40;80.40;;;;;;4801419;29;20146;-52
2022/10/16 00:21:30;;;;;;;1.40;1.30;;;16.40;80.40;;;;;;4803558;29;20055;-48
2022/10/16 00:24:03;;;;;;;1.75;1.38;;;16.40;80.50;;;;;;4804461;29;20146;-50
2022/10/16 00:26:33;;;;;;;2.95;1.27;;;16.40;80.50;;;;;;4802508;29;20057;-51
2022/10/16 00:29:03;;;;;;;2.97;1.30;;;16.40;80.60;;;;;;4803292;29;20051;-49
2022/10/16 00:31:30;;;;;;;2.22;1.85;;;16.40;80.40;;;;;;4804319;29;20656;-47
2022/10/16 00:34:00;;;;;;;2.45;1.45;;;16.40;80.50;;;;;;4803659;29;20059;-48
2022/10/16 00:36:30;;;;;;;;;;;16.40;80.50;;;;;;4798893;29;20656;-49
2022/10/16 00:38:59;;;;;;;1.60;1.17;;;16.50;80.70;;;;;;4802325;29;19928;-49
2022/10/16 00:41:27;;;;;;;2.47;1.42;;;16.40;80.20;;;;;;4804165;29;20051;-48
2022/10/16 00:43:59;;;;;;;3.25;1.63;;;16.40;80.10;;;;;;4800631;29;20501;-51
2022/10/16 00:46:36;;;;;;;1.20;1.10;;;16.40;80.20;;;;;;4803912;29;20073;-50
2022/10/16 00:49:05;;;;;;;2.28;1.20;;;16.40;80.20;;;;;;4804283;29;20125;-48
2022/10/16 00:51:38;;;;;;;1.38;1.27;;;16.40;80.30;;;;;;4803856;29;20069;-50
2022/10/16 00:54:18;;;;;;;1.48;1.20;;;16.40;80.40;;;;;;4798591;29;20036;-48
2022/10/16 00:56:46;;;;;;;2.08;1.02;;;16.30;80.30;;;;;;4801078;29;20118;-49
2022/10/16 00:59:19;;;;;;;1.88;1.02;;;16.30;80.10;;;;;;4804132;29;20074;-48
2022/10/16 01:01:45;;;;;;;1.63;1.00;;;16.30;80.10;;;;;;4803951;29;20066;-51
2022/10/16 01:04:15;;;;;;;1.50;1.05;;;16.30;80.00;;;;;;4802773;29;20133;-48
2022/10/16 01:06:58;;;;;;;0.77;0.77;;;16.30;80.20;;;;;;4800855;29;20431;-50
2022/10/16 01:09:45;;;;;;;1.35;1.10;;;16.30;80.20;;;;;;4803355;29;20078;-49
2022/10/16 01:12:26;;;;;;;1.52;1.15;;;16.30;80.30;;;;;;4803873;29;20499;-48
2022/10/16 01:15:25;;;;;;;1.20;1.10;;;16.20;80.20;;;;;;4797292;29;20584;-49
2022/10/16 01:18:35;;;;;;;2.28;0.95;;;16.30;80.40;;;;;;4804095;29;20058;-51
2022/10/16 01:21:09;;;;;;;3.55;1.52;;;16.20;80.10;;;;;;4804895;29;20050;-47
2022/10/16 01:24:07;;;;;;;1.92;1.13;;;16.20;79.80;;;;;;4799484;29;20488;-49
2022/10/16 01:27:09;;;;;;;3.40;1.05;;;16.20;80.00;;;;;;4803758;29;20057;-50
2022/10/16 01:29:42;;;;;;;1.42;0.95;;;16.20;79.80;;;;;;4803722;29;20584;-47
2022/10/16 01:32:15;;;;;;;2.22;0.77;;;16.10;79.90;;;;;;4799343;29;20043;-49
2022/10/16 01:34:53;;;;;;;0.88;0.65;;;16.10;80.00;;;;;;4801831;29;20053;-50
2022/10/16 01:37:57;;;;;;;2.38;1.00;;;16.10;80.10;;;;;;4803836;29;20045;-48
2022/10/16 01:40:31;;;;;;;1.85;0.82;;;16.10;80.10;;;;;;4801808;29;20051;-51
2022/10/16 01:43:18;;;;;;;0.98;0.88;;;16.10;80.10;;;;;;4801436;29;20133;-51
2022/10/16 01:45:49;;;;;;;1.40;0.70;;;16.10;80.10;;;;;;4803568;29;20047;-49
2022/10/16 01:48:21;;;;;;;1.10;0.88;;;16.10;80.00;;;;;;4802848;29;20597;-52
2022/10/16 01:51:17;;;;;;;1.07;0.97;;;16.10;79.80;;;;;;4799168;29;20063;-48
2022/10/16 01:53:48;;;;;;;2.33;0.80;;;16.10;79.80;;;;;;4797820;29;20062;-49
2022/10/16 01:56:17;;;;;;;1.90;0.77;;;16.10;79.60;;;;;;4803513;29;20073;-48
2022/10/16 01:58:57;;;;;;;1.20;0.75;;;16.10;79.60;;;;;;4800233;29;20039;-49
2022/10/16 02:01:29;;;;;;;0.75;0.60;;;16.00;79.50;;;;;;4802939;29;20133;-48
2022/10/16 02:04:01;;;;;;;;;;;16.00;79.50;;;;;;4803479;29;20042;-49
2022/10/16 02:06:29;;;;;;;;;;;16.10;79.70;;;;;;4803966;29;19989;-51
2022/10/16 02:08:56;;;;;;;0.82;0.80;;;16.10;79.50;;;;;;4798767;29;19925;-50
2022/10/16 02:11:24;;;;;;;0.85;0.65;;;16.00;79.10;;;;;;4798596;29;20054;-48
2022/10/16 02:13:58;;;;;;;1.42;0.60;;;16.00;79.30;;;;;;4803185;29;20434;-49
2022/10/16 02:16:41;;;;;;;1.20;0.70;;;16.00;79.50;;;;;;4807353;29;20125;-49
2022/10/16 02:19:14;;;;;;;0.80;0.80;;;16.00;79.90;;;;;;4798248;29;20039;-49
2022/10/16 02:21:53;;;;;;;1.55;0.90;;;15.90;79.80;;;;;;4802499;29;20051;-47
2022/10/16 02:24:45;;;;;;;1.05;0.93;;;15.90;79.80;;;;;;4801619;29;20581;-50
2022/10/16 02:27:25;;;;;;;0.60;0.57;;;16.00;79.90;;;;;;4802181;29;20452;-51
2022/10/16 02:30:11;;;;;;;1.83;0.73;;;16.00;79.80;;;;;;4797473;29;20038;-52
2022/10/16 02:32:43;;;;;;;0.70;0.70;;;16.00;79.90;;;;;;4806087;29;20034;-51
2022/10/16 02:35:10;;;;;;;0.80;0.80;;;16.00;79.80;;;;;;4814829;29;20054;-51
2022/10/16 02:37:39;;;;;;;1.65;0.73;;;16.00;79.70;;;;;;4823970;29;20053;-50
2022/10/16 02:40:07;;;;;;;0.82;0.75;;;16.00;79.70;;;;;;4802181;29;20054;-52
2022/10/16 02:42:37;;;;;;;2.25;0.98;;;16.00;79.70;;;;;;4806026;29;20061;-49
2022/10/16 02:45:08;;;;;;;0.88;0.80;;;16.00;79.60;;;;;;4806643;29;20099;-52
2022/10/16 02:47:35;;;;;;;2.28;0.95;;;16.00;79.60;;;;;;4803321;29;20055;-52
2022/10/16 02:50:05;;;;;;;0.93;0.70;;;16.00;79.60;;;;;;4805700;29;20086;-52
2022/10/16 02:52:34;;;;;;;0.90;0.80;;;16.00;79.60;;;;;;4804583;29;20069;-49
2022/10/16 02:55:01;;;;;;;0.68;0.65;;;16.00;79.60;;;;;;4803926;29;20035;-52
2022/10/16 02:57:27;;;;;;;0.63;0.60;;;16.00;79.50;;;;;;4806308;29;20508;-50
2022/10/16 02:59:55;;;;;;;0.77;0.70;;;16.00;79.50;;;;;;4806107;29;20416;-52
2022/10/16 03:02:21;;;;;;;1.45;0.75;;;16.00;79.60;;;;;;4806053;29;20047;-52
2022/10/16 03:04:48;;;;;;;1.38;0.70;;;16.00;79.50;;;;;;4802105;29;20055;-52
2022/10/16 03:07:17;;;;;;;0.98;0.80;;;16.00;79.60;;;;;;4801396;29;20049;-52
2022/10/16 03:09:44;;;;;;;0.75;0.50;;;16.00;79.50;;;;;;4805774;29;20075;-52
2022/10/16 03:12:11;;;;;;;0.82;0.60;;;16.00;79.50;;;;;;4805908;29;20079;-52
2022/10/16 03:14:39;;;;;;;1.95;0.70;;;16.00;79.60;;;;;;4805605;29;20047;-52
2022/10/16 03:17:06;;;;;;;1.75;0.60;;;16.00;79.50;;;;;;4802491;29;20054;-52
2022/10/16 03:19:33;;;;;;;1.90;0.90;;;16.00;79.40;;;;;;4804541;29;20047;-52
2022/10/16 03:21:59;;;;;;;1.45;0.90;;;16.00;80.00;;;;;;4805601;29;20518;-51
2022/10/16 03:24:26;;;;;;;0.63;0.60;;;16.00;79.40;;;;;;4800404;29;20577;-50
2022/10/16 03:26:53;;;;;;;0.60;0.60;;;16.00;79.20;;;;;;4803814;29;20057;-51
2022/10/16 03:29:19;;;;;;;2.03;0.85;;;16.00;79.10;;;;;;4805634;29;20051;-48
2022/10/16 03:31:53;;;;;;;0.95;0.95;;;16.00;79.00;;;;;;4805037;29;20050;-51
2022/10/16 03:34:20;;;;;;;0.70;0.60;;;16.00;79.10;;;;;;4802351;29;20043;-52
2022/10/16 03:36:47;;;;;;;1.67;0.68;;;16.00;79.10;;;;;;4798806;29;20077;-52
2022/10/16 03:39:14;;;;;;;0.95;0.85;;;16.00;79.10;;;;;;4804938;29;20066;-52
2022/10/16 03:41:40;;;;;;;0.85;0.65;;;16.00;79.10;;;;;;4805297;29;20042;-50
2022/10/16 03:44:12;;;;;;;0.75;0.55;;;15.90;79.10;;;;;;4800620;29;20079;-49
2022/10/16 03:46:39;;;;;;;0.60;0.60;;;15.90;79.20;;;;;;4799586;29;20129;-52
2022/10/16 03:49:10;;;;;;;0.50;0.50;;;15.90;79.30;;;;;;4805341;29;20123;-52
2022/10/16 03:51:41;;;;;;;0.90;0.70;;;15.90;79.30;;;;;;4805141;29;20408;-52
2022/10/16 03:54:12;;;;;;;1.08;0.88;;;15.90;79.30;;;;;;4799577;29;20035;-52
2022/10/16 03:56:39;;;;;;;1.75;0.80;;;15.90;79.30;;;;;;4805019;29;20118;-51
2022/10/16 03:59:05;;;;;;;0.68;0.60;;;15.90;79.30;;;;;;4804956;29;20045;-51
2022/10/16 04:01:34;;;;;;;0.70;0.70;;;15.80;79.20;;;;;;4804914;29;20047;-52
2022/10/16 04:04:04;;;;;;;0.63;0.60;;;15.80;79.30;;;;;;4801251;29;20111;-52
2022/10/16 04:06:33;;;;;;;0.75;0.68;;;15.80;79.20;;;;;;4805120;29;20054;-52
2022/10/16 04:08:59;;;;;;;1.02;0.82;;;15.80;79.20;;;;;;4804743;29;20058;-49
2022/10/16 04:11:27;;;;;;;1.48;0.73;;;15.80;79.30;;;;;;4802500;29;20059;-52
2022/10/16 04:13:54;;;;;;;1.10;0.80;;;15.80;79.20;;;;;;4800772;29;20050;-50
2022/10/16 04:16:20;;;;;;;1.13;0.70;;;15.80;79.20;;;;;;4805251;29;20042;-52
2022/10/16 04:18:49;;;;;;;3.15;0.80;;;15.70;79.20;;;;;;4811187;29;20070;-52
2022/10/16 04:21:21;;;;;;;1.38;0.88;;;15.70;79.20;;;;;;4799289;29;20046;-50
2022/10/16 04:23:49;;;;;;;1.10;1.00;;;15.70;79.20;;;;;;4804187;29;20055;-52
2022/10/16 04:26:15;;;;;;;0.70;0.70;;;15.70;79.30;;;;;;4804801;29;20060;-51
2022/10/16 04:28:44;;;;;;;0.80;0.80;;;15.70;79.30;;;;;;4803840;29;20057;-52
2022/10/16 04:31:11;;;;;;;1.20;0.85;;;15.80;79.40;;;;;;4801182;29;20115;-50
2022/10/16 04:33:38;;;;;;;1.33;0.80;;;15.60;79.40;;;;;;4802881;29;20478;-52
2022/10/16 04:36:07;;;;;;;1.30;0.82;;;15.60;79.50;;;;;;4800578;29;20706;-50
2022/10/16 04:38:37;;;;;;;0.55;0.55;;;15.60;79.60;;;;;;4800388;29;20054;-52
2022/10/16 04:41:06;;;;;;;2.67;0.77;;;15.60;79.60;;;;;;4801011;29;20049;-51
2022/10/16 04:43:34;;;;;;;1.50;0.70;;;15.60;80.30;;;;;;4799323;29;20486;-52
2022/10/16 04:46:01;;;;;;;1.05;0.70;;;15.60;79.70;;;;;;4802961;29;20074;-51
2022/10/16 04:48:31;;;;;;;1.17;0.88;;;15.60;79.80;;;;;;4802641;29;20874;-52
2022/10/16 04:50:57;;;;;;;0.95;0.75;;;15.60;80.00;;;;;;4801117;29;20049;-48
2022/10/16 04:53:24;;;;;;;2.85;1.38;;;15.60;80.10;;;;;;4802540;29;20047;-52
2022/10/16 04:55:51;;;;;;;1.17;0.70;;;15.60;80.10;;;;;;4816821;24;20071;-52
2022/10/16 04:58:17;;;;;;;0.80;0.63;;;15.60;80.00;;;;;;4784672;29;20540;-52
2022/10/16 05:00:45;;;;;;;1.83;1.05;;;15.60;80.10;;;;;;4782824;29;20402;-51
2022/10/16 05:03:15;;;;;;;1.27;1.17;;;15.60;80.20;;;;;;4785873;29;20506;-51
2022/10/16 05:05:45;;;;;;;0.80;0.80;;;15.60;80.10;;;;;;4785995;29;20061;-54
2022/10/16 05:08:13;;;;;;;2.80;1.30;;;15.60;80.00;;;;;;4783075;29;20421;-50
2022/10/16 05:10:44;;;;;;;0.90;0.90;;;15.60;79.90;;;;;;4785376;30;20062;-54
2022/10/16 05:13:16;;;;;;;1.70;0.90;;;15.60;80.00;;;;;;4785656;29;20048;-51
2022/10/16 05:15:49;;;;;;;2.13;1.00;;;15.60;80.00;;;;;;4785917;29;20051;-53
2022/10/16 05:18:18;;;;;;;1.13;1.02;;;15.60;79.90;;;;;;4779617;29;20054;-49
2022/10/16 05:20:48;;;;;;;3.25;1.20;;;15.60;79.90;;;;;;4785208;29;20043;-54
2022/10/16 05:23:15;;;;;;;3.08;1.10;;;15.60;79.90;;;;;;4785316;29;20051;-50
2022/10/16 05:25:57;;;;;;;2.45;1.10;;;15.60;79.90;;;;;;4782231;29;20131;-50
2022/10/16 05:28:26;;;;;;;0.88;0.88;;;15.60;79.90;;;;;;4782991;29;20130;-53
2022/10/16 05:30:53;;;;;;;1.75;1.08;;;15.60;79.80;;;;;;4785631;29;20047;-53
2022/10/16 05:33:21;;;;;;;3.13;1.13;;;15.60;79.80;;;;;;4785485;29;20051;-53
2022/10/16 05:35:49;;;;;;;1.50;1.05;;;15.60;79.70;;;;;;4783648;29;20047;-53
2022/10/16 05:38:16;;;;;;;1.63;1.25;;;15.60;79.70;;;;;;4780898;30;20058;-50
2022/10/16 05:40:49;;;;;;;2.50;1.25;;;15.60;79.70;;;;;;4784877;29;20047;-50
2022/10/16 05:43:16;;;;;;;1.50;1.20;;;15.60;79.60;;;;;;4785590;29;20134;-50
2022/10/16 05:45:43;;;;;;;2.03;1.38;;;15.60;79.60;;;;;;4783672;29;20047;-51
2022/10/16 05:48:09;;;;;;;3.58;1.20;;;15.60;79.60;;;;;;4784457;29;20409;-51
2022/10/16 05:50:36;;;;;;;3.05;1.80;;;15.60;79.70;;;;;;4786056;29;20436;-51
2022/10/16 05:53:04;;;;;;;2.25;1.15;;;15.60;79.70;;;;;;4785822;29;20096;-51
2022/10/16 05:55:31;;;;;;;1.52;1.33;;;15.60;79.80;;;;;;4783641;29;20472;-52
2022/10/16 05:57:58;;;;;;;1.70;1.52;;;15.60;79.80;;;;;;4785899;29;20048;-53
2022/10/16 06:00:24;;;;;;;1.88;1.20;;;15.50;79.80;;;;;;4786342;29;20419;-51
2022/10/16 06:02:51;;;;;;;1.98;1.60;;;15.50;79.90;;;;;;4789441;29;20453;-53
2022/10/16 06:05:17;;;;;;;1.90;1.13;;;15.50;80.00;;;;;;4786246;29;20119;-52
2022/10/16 06:07:49;;;;;;;3.42;1.23;;;15.50;80.00;;;;;;4785407;30;20097;-52
2022/10/16 06:10:18;;;;;;;1.52;1.42;;;15.50;80.00;;;;;;4789282;29;20047;-54
2022/10/16 06:12:44;;;;;;;2.80;1.80;;;15.50;80.10;;;;;;4788615;29;20753;-50
2022/10/16 06:15:11;;;;;;;1.70;1.60;;;15.50;80.20;;;;;;4781800;29;20062;-52
2022/10/16 06:17:37;;;;;;;1.65;1.55;;;15.60;80.30;;;;;;4788065;29;20039;-54
2022/10/16 06:20:05;;;;;;;1.55;1.42;;;15.60;80.30;;;;;;4787385;29;20055;-53
2022/10/16 06:22:31;;;;;;;1.70;1.60;;;15.60;80.30;;;;;;4783126;29;20469;-54
2022/10/16 06:24:58;;;;;;;1.50;1.40;;;15.60;80.30;;;;;;4780235;29;20059;-51
2022/10/16 06:27:25;;;;;;;2.03;1.60;;;15.60;80.20;;;;;;4787230;29;20059;-53
2022/10/16 06:29:54;;;;;;;2.05;1.85;;;15.60;80.10;;;;;;4785279;29;20116;-52
2022/10/16 06:32:23;;;;;;;2.22;1.83;;;15.60;80.00;;;;;;4779372;29;20051;-54
2022/10/16 06:34:50;;;;;;;2.30;1.30;;;15.60;80.00;;;;;;4786665;30;20082;-56
2022/10/16 06:37:16;;;;;;;2.53;1.63;;;15.60;79.90;;;;;;4787240;29;20047;-55
2022/10/16 06:39:43;;;;;;;1.58;1.45;;;15.60;79.90;;;;;;4786290;29;20054;-52
2022/10/16 06:42:10;;;;;;;1.52;1.42;;;15.60;79.80;;;;;;4782531;29;20437;-53
2022/10/16 06:44:36;;;;;;;1.77;1.52;;;15.60;79.80;;;;;;4772762;29;20070;-53
2022/10/16 06:47:03;;;;;;;1.83;1.38;;;15.60;79.80;;;;;;4770650;29;20055;-55
2022/10/16 06:49:30;;;;;;;2.10;1.90;;;15.60;79.80;;;;;;4784260;29;20128;-53
2022/10/16 06:51:56;;;;;;;1.70;1.60;;;15.60;79.80;;;;;;4781689;29;20074;-53
2022/10/16 06:54:23;;;;;;;2.13;1.10;;;15.60;79.80;;;;;;4785583;29;20047;-54
2022/10/16 06:56:51;;;;;;;2.40;1.45;;;15.50;79.80;;;;;;4786995;29;20054;-55
2022/10/16 06:59:17;;;;;;;2.40;1.63;;;15.50;79.80;;;;;;4785713;29;20469;-53
2022/10/16 07:01:44;;;;;;;1.90;1.80;;;15.50;79.80;;;;;;4783741;30;20043;-54
2022/10/16 07:04:11;;;;;;;2.72;1.73;;;15.50;79.90;;;;;;4787297;29;20051;-55
2022/10/16 07:06:37;;;;;;;2.83;1.52;;;15.50;79.90;;;;;;4788482;29;20058;-54
2022/10/16 07:09:08;;;;;;;1.92;1.70;;;15.50;80.00;;;;;;4783464;29;20079;-55
2022/10/16 07:11:37;;;;;;;2.17;1.67;;;15.50;80.00;;;;;;4785238;29;20520;-54
2022/10/16 07:14:04;;;;;;;2.50;1.75;;;15.50;80.10;;;;;;4786281;29;20043;-51
2022/10/16 07:16:32;;;;;;;2.80;1.48;;;15.50;80.10;;;;;;4786185;29;20051;-54
2022/10/16 07:19:02;;;;;;;2.42;1.85;;;15.50;80.20;;;;;;4788153;29;20054;-54
2022/10/16 07:21:35;;;;;;;3.78;3.00;;;15.50;80.20;;;;;;4785383;29;20566;-52
2022/10/16 07:24:02;;;;;;;3.65;2.30;;;15.50;80.20;;;;;;4787220;30;20085;-53
2022/10/16 07:26:30;;;;;;;2.70;2.25;;;15.50;80.20;;;;;;4788182;29;20074;-55
2022/10/16 07:28:57;;;;;;;2.30;1.98;;;15.50;80.40;;;;;;4785165;29;20147;-55
2022/10/16 07:31:25;;;;;;;4.93;2.15;;;15.60;80.50;;;;;;4788309;29;20055;-54
2022/10/16 07:33:52;;;;;;;4.45;1.98;;;15.60;80.60;;;;;;4787215;29;20046;-53
2022/10/16 07:36:20;;;;;;;2.45;1.95;;;15.60;80.80;;;;;;4788151;29;20158;-55
2022/10/16 07:38:47;;;;;;;2.85;2.40;;;15.60;80.90;;;;;;4785581;29;20047;-55
2022/10/16 07:41:16;;;;;;;2.03;1.83;;;15.70;81.00;;;;;;4784360;29;20475;-55
2022/10/16 07:43:47;;;;;;;4.60;1.60;;;15.70;81.00;;;;;;4792116;29;20484;-55
2022/10/16 07:46:14;;;;;;;2.15;1.85;;;15.80;81.20;;;;;;4787226;29;20134;-54
2022/10/16 07:48:45;;;;;;;1.65;1.30;;;15.80;81.00;;;;;;4784351;30;20051;-55
2022/10/16 07:51:13;;;;;;;2.65;1.35;;;15.80;81.00;;;;;;4787450;29;20130;-54
2022/10/16 07:53:40;;;;;;;4.43;1.38;;;15.90;81.10;;;;;;4786581;29;20051;-55
2022/10/16 07:56:08;;;;;;;3.05;1.70;;;15.90;81.00;;;;;;4786567;29;20047;-53
2022/10/16 07:58:38;;;;;;;3.45;1.73;;;16.00;81.00;;;;;;4785374;30;20126;-53
2022/10/16 08:01:07;;;;;;;3.67;1.27;;;16.00;81.60;;;;;;4786692;29;20425;-55
2022/10/16 08:03:35;;;;;;;2.78;2.08;;;16.00;80.90;;;;;;4787357;29;20055;-55
2022/10/16 08:06:02;;;;;;;1.50;1.27;;;16.10;80.90;;;;;;4781497;29;20051;-51
2022/10/16 08:08:29;;;;;;;4.90;1.33;;;16.20;80.80;;;;;;4785026;29;20059;-55
2022/10/16 08:10:56;;;;;;;1.52;1.02;;;16.20;80.90;;;;;;4787153;29;20051;-50
2022/10/16 08:13:26;;;;;;;3.80;1.42;;;16.30;80.90;;;;;;4787024;29;20051;-54
2022/10/16 08:15:54;;;;;;;2.17;1.50;;;16.30;80.80;;;;;;4784526;29;20054;-53
2022/10/16 08:18:21;;;;;;;2.88;1.80;;;16.40;80.70;;;;;;4786519;29;20047;-54
2022/10/16 08:20:54;;;;;;;3.75;1.20;;;16.40;80.60;;;;;;4786648;29;20398;-52
2022/10/16 08:23:21;;;;;;;3.63;1.50;;;16.50;80.60;;;;;;4783961;29;20062;-51
2022/10/16 08:25:47;;;;;;;1.30;1.20;;;16.60;80.50;;;;;;4782703;29;20122;-52
2022/10/16 08:28:15;;;;;;;2.92;1.45;;;16.60;80.40;;;;;;4786778;29;20051;-51
2022/10/16 08:30:42;;;;;;;1.52;1.08;;;16.70;80.10;;;;;;4786650;29;20051;-54
2022/10/16 08:33:08;;;;;;;1.77;1.65;;;16.80;79.90;;;;;;4786266;29;20043;-52
2022/10/16 08:35:35;;;;;;;1.73;1.33;;;16.80;79.70;;;;;;4781616;29;20039;-55
2022/10/16 08:38:06;;;;;;;2.17;1.02;;;16.90;79.60;;;;;;4781114;30;20043;-51
2022/10/16 08:40:35;;;;;;;2.25;1.25;;;17.00;79.30;;;;;;4780523;29;20039;-53
2022/10/16 08:43:23;;;;;;;1.70;1.15;;;17.00;79.00;;;;;;4786646;29;20065;-51
2022/10/16 08:46:01;;;;;;;1.00;0.93;;;17.10;78.50;;;;;;4784614;29;20043;-54
2022/10/16 08:48:50;;;;;;;1.10;1.00;;;17.20;78.60;;;;;;4786946;29;20051;-53
2022/10/16 08:51:35;;;;;;;2.70;1.25;;;17.30;78.20;;;;;;4781781;29;20114;-53
2022/10/16 08:54:35;;;;;;;1.83;1.17;;;17.30;78.20;;;;;;4778030;29;20120;-54
2022/10/16 08:57:17;;;;;;;1.70;0.80;;;17.40;77.50;;;;;;4783922;29;20527;-51
2022/10/16 08:59:50;;;;;;;1.33;0.95;;;17.40;77.20;;;;;;4786697;29;20050;-54
2022/10/16 09:02:35;;;;;;;1.25;1.02;;;17.50;77.30;;;;;;4784544;30;20035;-55
2022/10/16 09:05:16;;;;;;;1.40;0.95;;;17.50;76.60;;;;;;4783924;30;20057;-55
2022/10/16 09:07:54;;;;;;;2.28;1.10;;;17.60;76.20;;;;;;4786524;29;20055;-56
2022/10/16 09:10:36;;;;;;;1.33;0.82;;;17.60;76.10;;;;;;4786542;29;20055;-55
2022/10/16 09:13:17;;;;;;;2.17;1.02;;;17.70;76.40;;;;;;4782621;30;20076;-55
2022/10/16 09:16:11;;;;;;;3.00;0.90;;;17.70;75.70;;;;;;4786273;29;20055;-54
2022/10/16 09:18:47;;;;;;;2.42;1.05;;;17.80;74.90;;;;;;4793984;29;20047;-55
2022/10/16 09:21:30;;;;;;;1.70;0.85;;;17.80;75.50;;;;;;4780442;29;20233;-56
2022/10/16 09:24:13;;;;;;;1.95;0.98;;;17.90;74.70;;;;;;4785819;29;20078;-55
2022/10/16 09:26:39;;;;;;;1.85;0.80;;;17.90;74.70;;;;;;4780879;29;20047;-53
2022/10/16 09:29:06;;;;;;;1.05;0.60;;;18.00;74.80;;;;;;4785255;29;20126;-53
2022/10/16 09:31:36;;;;;;;2.33;1.38;;;18.00;74.40;;;;;;4783943;29;20134;-52
2022/10/16 09:34:05;;;;;;;1.40;0.63;;;18.10;74.30;;;;;;4785518;29;20043;-56
2022/10/16 09:36:41;;;;;;;2.35;0.77;;;18.10;74.20;;;;;;4785963;29;20077;-54
2022/10/16 09:39:11;;;;;;;1.92;1.00;;;18.20;73.60;;;;;;4780114;30;20523;-56
2022/10/16 09:41:44;;;;;;;2.65;1.05;;;18.20;73.60;;;;;;4783308;30;20119;-54
2022/10/16 09:44:25;;;;;;;1.30;0.88;;;18.20;73.10;;;;;;4783915;30;20124;-55
2022/10/16 09:47:11;;;;;;;1.13;0.60;;;18.20;72.50;;;;;;4786182;29;20416;-56
2022/10/16 09:49:49;;;;;;;1.60;0.70;;;18.30;72.80;;;;;;4784003;29;20074;-56
2022/10/16 09:52:18;;;;;;;1.00;0.90;;;18.30;73.10;;;;;;4784937;29;20070;-55
2022/10/16 09:54:59;;;;;;;1.27;0.70;;;18.30;72.80;;;;;;4785469;29;20421;-55
2022/10/16 09:57:27;;;;;;;1.75;0.68;;;18.40;71.90;;;;;;4786064;29;20130;-52
2022/10/16 09:59:56;;;;;;;1.88;0.80;;;18.40;72.40;;;;;;4781475;29;20301;-53
2022/10/16 10:02:43;;;;;;;3.42;0.65;;;18.40;72.60;;;;;;4785790;29;20043;-55
2022/10/16 10:05:19;;;;;;;3.08;1.00;;;18.50;72.10;;;;;;4789681;29;20043;-53
2022/10/16 10:07:46;;;;;;;2.15;0.80;;;18.50;72.20;;;;;;4804078;29;20046;-56
2022/10/16 10:10:30;;;;;;;2.45;0.60;;;18.50;72.30;;;;;;4782878;29;20040;-54
2022/10/16 10:12:57;;;;;;;1.80;0.75;;;18.60;71.50;;;;;;4785636;29;20051;-55
2022/10/16 10:15:26;;;;;;;1.77;0.85;;;18.60;72.00;;;;;;4785570;30;20435;-55
2022/10/16 10:17:57;;;;;;;1.30;0.80;;;18.70;71.70;;;;;;4790164;29;20126;-55
2022/10/16 10:20:30;;;;;;;1.33;0.65;;;18.80;71.70;;;;;;4778134;30;20051;-53
2022/10/16 10:22:57;;;;;;;1.63;0.90;;;18.80;71.60;;;;;;4784744;29;20043;-56
2022/10/16 10:25:51;;;;;;;2.83;0.82;;;18.80;71.10;;;;;;4784875;29;20059;-54
2022/10/16 10:28:25;;;;;;;3.50;0.90;;;18.90;70.00;;;;;;4782535;29;20047;-56
2022/10/16 10:30:57;;;;;;;1.15;0.80;;;19.00;70.40;;;;;;4785211;29;20100;-52
2022/10/16 10:33:41;;;;;;;;;;;19.00;70.10;;;;;;4785534;30;20134;-52
2022/10/16 10:36:29;;;;;;;1.02;0.80;;;19.10;71.00;;;;;;4776975;29;19934;-56
2022/10/16 10:39:05;;;;;;;1.45;0.32;;;19.20;69.90;;;;;;4787556;29;20043;-56
2022/10/16 10:41:55;;;;;;;1.70;0.60;;;19.20;69.20;;;;;;4783805;29;20227;-54
2022/10/16 10:45:04;;;;;;;2.47;0.57;;;19.30;69.40;;;;;;4782452;29;20557;-55
2022/10/16 10:47:37;;;;;;;2.70;0.55;;;19.30;67.90;;;;;;4787430;29;20394;-54
2022/10/16 10:50:33;;;;;;;1.75;0.57;;;19.30;68.40;;;;;;4788317;29;20058;-54
2022/10/16 10:53:24;;;;;;;1.45;0.50;;;19.30;67.70;;;;;;4783577;29;20735;-54
2022/10/16 10:56:14;;;;;;;0.93;0.50;;;19.30;67.50;;;;;;4782479;29;20051;-51
2022/10/16 10:59:07;;;;;;;2.13;0.43;;;19.40;67.10;;;;;;4787434;29;20044;-53
2022/10/16 11:01:48;;;;;;;1.17;0.40;;;19.40;67.20;;;;;;4788191;29;20509;-55
2022/10/16 11:04:49;;;;;;;2.78;0.80;;;19.40;67.20;;;;;;4786263;29;20051;-52
2022/10/16 11:07:16;;;;;;;2.10;0.55;;;19.40;67.30;;;;;;4807586;24;20421;-56
2022/10/16 11:09:50;;;;;;;1.83;0.80;;;19.40;67.80;;;;;;4805190;29;20662;-56
2022/10/16 11:12:26;;;;;;;3.13;0.70;;;19.40;67.50;;;;;;4805306;29;20076;-53
2022/10/16 11:15:10;;;;;;;1.70;0.52;;;19.40;67.50;;;;;;4801486;29;20043;-53
2022/10/16 11:18:15;;;;;;;4.60;0.77;;;19.50;67.60;;;;;;4806658;29;20058;-54
2022/10/16 11:20:53;;;;;;;0.80;0.63;;;19.50;66.40;;;;;;4811264;29;20082;-49
2022/10/16 11:23:29;;;;;;;1.13;0.50;;;19.50;66.70;;;;;;4805727;29;20057;-54
2022/10/16 11:26:00;;;;;;;3.17;0.90;;;19.50;67.20;;;;;;4800802;29;20130;-53
2022/10/16 11:28:34;;;;;;;1.43;0.73;;;19.50;67.20;;;;;;4804941;29;20082;-54
2022/10/16 11:31:35;;;;;;;2.03;0.70;;;19.50;66.80;;;;;;4805803;29;20142;-53
2022/10/16 11:34:15;;;;;;;1.17;0.40;;;19.60;65.70;;;;;;4801753;29;20540;-53
2022/10/16 11:37:16;;;;;;;2.17;0.85;;;19.60;65.70;;;;;;4799395;29;20047;-54
2022/10/16 11:39:47;;;;;;;2.97;0.80;;;19.60;66.40;;;;;;4802517;29;20051;-53
2022/10/16 11:42:30;;;;;;;1.38;0.50;;;19.60;66.70;;;;;;4798657;29;20050;-54
2022/10/16 11:45:24;;;;;;;1.15;0.70;;;19.60;66.80;;;;;;4804326;29;20062;-53
2022/10/16 11:48:31;;;;;;;4.70;1.23;;;19.70;66.20;;;;;;4786340;29;20416;-54
2022/10/16 11:51:15;;;;;;;0.70;0.50;;;19.80;65.20;;;;;;4802341;29;20468;-49
2022/10/16 11:53:58;;;;;;;2.47;0.52;;;19.90;65.40;;;;;;4803465;29;20063;-53
2022/10/16 11:56:26;;;;;;;0.82;0.40;;;20.00;65.00;;;;;;4805913;29;20500;-51
2022/10/16 11:59:17;;;;;;;2.25;0.50;;;20.10;65.90;;;;;;4804963;29;20053;-52
2022/10/16 12:01:49;;;;;;;1.55;0.50;;;20.20;64.50;;;;;;4802367;29;20059;-52
2022/10/16 12:04:45;;;;;;;2.50;0.60;;;20.30;65.10;;;;;;4805020;29;20459;-51
2022/10/16 12:07:21;;;;;;;0.52;0.40;;;20.50;63.70;;;;;;4805596;29;20462;-51
2022/10/16 12:09:47;;;;;;;0.82;0.60;;;20.70;64.40;;;;;;4800887;29;20061;-54
2022/10/16 12:12:37;;;;;;;1.02;0.57;;;20.80;64.90;;;;;;4805017;29;20046;-50
2022/10/16 12:15:19;;;;;;;2.75;0.57;;;21.00;63.70;;;;;;4805303;29;20118;-54
2022/10/16 12:18:03;;;;;;;1.50;0.60;;;21.20;63.00;;;;;;4812299;29;20405;-53
2022/10/16 12:20:33;;;;;;;1.70;0.80;;;21.30;63.00;;;;;;4801263;29;20043;-53
2022/10/16 12:23:19;;;;;;;1.48;0.50;;;21.40;62.40;;;;;;4803592;29;20046;-54
2022/10/16 12:25:54;;;;;;;0.52;0.45;;;21.50;61.60;;;;;;4800637;29;20053;-53
2022/10/16 12:28:28;;;;;;;2.15;0.60;;;21.60;61.50;;;;;;4804370;29;20076;-51
2022/10/16 12:30:59;;;;;;;0.50;0.50;;;21.70;61.10;;;;;;4795526;29;20504;-54
2022/10/16 12:33:30;;;;;;;1.98;1.02;;;21.70;61.80;;;;;;4806786;29;20078;-54
2022/10/16 12:36:03;;;;;;;0.65;0.50;;;21.80;62.60;;;;;;4800177;29;20074;-54
2022/10/16 12:38:47;;;;;;;1.10;0.47;;;21.90;61.20;;;;;;4797609;29;20043;-54
2022/10/16 12:41:26;;;;;;;1.17;0.40;;;21.90;59.90;;;;;;4801465;29;20046;-53
2022/10/16 12:43:53;;;;;;;0.52;0.50;;;22.00;59.90;;;;;;4801736;29;20067;-54
2022/10/16 12:46:28;;;;;;;2.28;0.60;;;22.00;60.70;;;;;;4803537;29;20069;-54
2022/10/16 12:49:07;;;;;;;4.22;0.60;;;22.00;60.20;;;;;;4797686;29;20133;-54
2022/10/16 12:51:37;;;;;;;0.98;0.40;;;22.10;59.60;;;;;;4796726;29;20819;-53
2022/10/16 12:54:30;;;;;;;0.68;0.40;;;22.10;60.00;;;;;;4804139;29;20512;-53
2022/10/16 12:57:08;;;;;;;2.22;0.45;;;22.10;58.70;;;;;;4799503;29;20051;-54
2022/10/16 12:59:51;;;;;;;1.13;0.47;;;22.10;59.10;;;;;;4800947;29;20047;-54
2022/10/16 13:02:44;;;;;;;2.92;0.65;;;22.10;59.20;;;;;;4802323;29;20107;-54
2022/10/16 13:05:24;;;;;;;1.02;0.40;;;22.10;58.70;;;;;;4798321;29;20057;-54
2022/10/16 13:08:03;;;;;;;1.17;0.30;;;22.10;58.90;;;;;;4799559;29;20103;-54
2022/10/16 13:10:58;;;;;;;2.22;0.50;;;22.10;59.80;;;;;;4803364;29;20053;-54
2022/10/16 13:13:40;;;;;;;1.30;0.50;;;22.20;58.40;;;;;;4801523;29;20055;-53
2022/10/16 13:16:33;;;;;;;0.55;0.55;;;22.30;58.00;;;;;;4803954;29;20056;-55
2022/10/16 13:19:09;;;;;;;2.05;0.40;;;22.40;58.50;;;;;;4802481;29;20074;-55
2022/10/16 13:22:01;;;;;;;1.77;0.63;;;22.50;59.40;;;;;;4803326;29;20066;-55